sensor_id;sensor_type;location;lat;lon;timestamp;P1;durP1;ratioP1;P2;durP2;ratioP2
61036;SDS011;57313;47.040;15.498;2022-07-29T00:01:40;11.10;;;5.47;;
61036;SDS011;57313;47.040;15.498;2022-07-29T00:04:09;10.43;;;5.40;;
61036;SDS011;57313;47.040;15.498;2022-07-29T00:06:36;9.32;;;4.90;;
61036;SDS011;57313;47.040;15.498;2022-07-29T00:09:04;14.75;;;5.40;;
61036;SDS011;57313;47.040;15.498;2022-07-29T00:11:32;12.70;;;5.53;;
61036;SDS011;57313;47.040;15.498;2022-07-29T00:13:59;11.68;;;5.10;;
61036;SDS011;57313;47.040;15.498;2022-07-29T00:16:26;10.63;;;5.63;;
61036;SDS011;57313;47.040;15.498;2022-07-29T00:18:54;9.55;;;5.25;;
61036;SDS011;57313;47.040;15.498;2022-07-29T00:21:22;11.13;;;4.90;;
61036;SDS011;57313;47.040;15.498;2022-07-29T00:23:49;11.00;;;5.45;;
61036;SDS011;57313;47.040;15.498;2022-07-29T00:26:16;11.18;;;5.40;;
61036;SDS011;57313;47.040;15.498;2022-07-29T00:28:44;12.43;;;5.65;;
61036;SDS011;57313;47.040;15.498;2022-07-29T00:31:11;11.43;;;5.60;;
61036;SDS011;57313;47.040;15.498;2022-07-29T00:33:38;10.00;;;5.70;;
61036;SDS011;57313;47.040;15.498;2022-07-29T00:36:06;9.43;;;5.35;;
61036;SDS011;57313;47.040;15.498;2022-07-29T00:38:35;11.48;;;5.10;;
61036;SDS011;57313;47.040;15.498;2022-07-29T00:41:02;10.55;;;5.90;;
61036;SDS011;57313;47.040;15.498;2022-07-29T00:43:29;10.95;;;6.05;;
61036;SDS011;57313;47.040;15.498;2022-07-29T00:45:56;11.00;;;6.15;;
61036;SDS011;57313;47.040;15.498;2022-07-29T00:48:26;11.27;;;5.60;;
61036;SDS011;57313;47.040;15.498;2022-07-29T00:50:54;10.80;;;5.63;;
61036;SDS011;57313;47.040;15.498;2022-07-29T00:53:22;11.65;;;5.65;;
61036;SDS011;57313;47.040;15.498;2022-07-29T00:55:54;11.80;;;5.88;;
61036;SDS011;57313;47.040;15.498;2022-07-29T00:58:21;13.07;;;6.55;;
61036;SDS011;57313;47.040;15.498;2022-07-29T01:00:49;11.05;;;5.78;;
61036;SDS011;57313;47.040;15.498;2022-07-29T01:03:17;10.70;;;6.07;;
61036;SDS011;57313;47.040;15.498;2022-07-29T01:05:45;12.43;;;6.38;;
61036;SDS011;57313;47.040;15.498;2022-07-29T01:08:17;11.05;;;5.90;;
61036;SDS011;57313;47.040;15.498;2022-07-29T01:10:45;12.85;;;6.32;;
61036;SDS011;57313;47.040;15.498;2022-07-29T01:13:15;11.13;;;6.13;;
61036;SDS011;57313;47.040;15.498;2022-07-29T01:15:43;12.07;;;5.80;;
61036;SDS011;57313;47.040;15.498;2022-07-29T01:18:16;10.05;;;5.55;;
61036;SDS011;57313;47.040;15.498;2022-07-29T01:20:55;9.70;;;5.53;;
61036;SDS011;57313;47.040;15.498;2022-07-29T01:23:41;12.55;;;5.32;;
61036;SDS011;57313;47.040;15.498;2022-07-29T01:26:22;10.45;;;5.80;;
61036;SDS011;57313;47.040;15.498;2022-07-29T01:29:01;13.18;;;6.05;;
61036;SDS011;57313;47.040;15.498;2022-07-29T01:31:39;11.25;;;6.18;;
61036;SDS011;57313;47.040;15.498;2022-07-29T01:34:27;13.50;;;5.95;;
61036;SDS011;57313;47.040;15.498;2022-07-29T01:36:59;10.90;;;6.10;;
61036;SDS011;57313;47.040;15.498;2022-07-29T01:39:34;12.93;;;6.45;;
61036;SDS011;57313;47.040;15.498;2022-07-29T01:42:05;12.63;;;6.35;;
61036;SDS011;57313;47.040;15.498;2022-07-29T01:44:39;11.85;;;6.20;;
61036;SDS011;57313;47.040;15.498;2022-07-29T01:47:14;11.43;;;5.78;;
61036;SDS011;57313;47.040;15.498;2022-07-29T01:49:47;11.82;;;6.60;;
61036;SDS011;57313;47.040;15.498;2022-07-29T01:52:19;12.25;;;6.18;;
61036;SDS011;57313;47.040;15.498;2022-07-29T01:54:51;10.63;;;5.82;;
61036;SDS011;57313;47.040;15.498;2022-07-29T01:57:25;12.38;;;5.78;;
61036;SDS011;57313;47.040;15.498;2022-07-29T01:59:56;11.98;;;6.00;;
61036;SDS011;57313;47.040;15.498;2022-07-29T02:02:25;11.20;;;6.00;;
61036;SDS011;57313;47.040;15.498;2022-07-29T02:04:54;11.07;;;5.80;;
61036;SDS011;57313;47.040;15.498;2022-07-29T02:07:24;10.93;;;5.63;;
61036;SDS011;57313;47.040;15.498;2022-07-29T02:09:55;13.50;;;5.70;;
61036;SDS011;57313;47.040;15.498;2022-07-29T02:12:24;11.43;;;5.93;;
61036;SDS011;57313;47.040;15.498;2022-07-29T02:14:56;10.75;;;6.32;;
61036;SDS011;57313;47.040;15.498;2022-07-29T02:17:27;14.75;;;6.93;;
61036;SDS011;57313;47.040;15.498;2022-07-29T02:20:04;11.73;;;5.78;;
61036;SDS011;57313;47.040;15.498;2022-07-29T02:22:33;14.13;;;5.90;;
61036;SDS011;57313;47.040;15.498;2022-07-29T02:25:04;10.90;;;5.95;;
61036;SDS011;57313;47.040;15.498;2022-07-29T02:27:39;11.48;;;6.22;;
61036;SDS011;57313;47.040;15.498;2022-07-29T02:30:10;11.02;;;5.97;;
61036;SDS011;57313;47.040;15.498;2022-07-29T02:32:40;12.48;;;6.53;;
61036;SDS011;57313;47.040;15.498;2022-07-29T02:35:09;14.00;;;6.30;;
61036;SDS011;57313;47.040;15.498;2022-07-29T02:37:39;13.52;;;6.65;;
61036;SDS011;57313;47.040;15.498;2022-07-29T02:40:09;11.23;;;6.13;;
61036;SDS011;57313;47.040;15.498;2022-07-29T02:42:41;11.10;;;6.40;;
61036;SDS011;57313;47.040;15.498;2022-07-29T02:45:11;10.63;;;6.28;;
61036;SDS011;57313;47.040;15.498;2022-07-29T02:47:39;13.85;;;6.85;;
61036;SDS011;57313;47.040;15.498;2022-07-29T02:50:12;11.20;;;6.22;;
61036;SDS011;57313;47.040;15.498;2022-07-29T02:52:43;10.40;;;5.97;;
61036;SDS011;57313;47.040;15.498;2022-07-29T02:55:15;13.15;;;6.45;;
61036;SDS011;57313;47.040;15.498;2022-07-29T02:57:46;11.30;;;6.35;;
61036;SDS011;57313;47.040;15.498;2022-07-29T03:00:22;13.73;;;6.10;;
61036;SDS011;57313;47.040;15.498;2022-07-29T03:02:52;12.38;;;6.50;;
61036;SDS011;57313;47.040;15.498;2022-07-29T03:05:22;11.88;;;6.25;;
61036;SDS011;57313;47.040;15.498;2022-07-29T03:08:00;13.18;;;7.00;;
61036;SDS011;57313;47.040;15.498;2022-07-29T03:10:29;12.05;;;6.70;;
61036;SDS011;57313;47.040;15.498;2022-07-29T03:12:57;11.07;;;6.60;;
61036;SDS011;57313;47.040;15.498;2022-07-29T03:15:27;14.02;;;6.80;;
61036;SDS011;57313;47.040;15.498;2022-07-29T03:17:56;13.00;;;6.18;;
61036;SDS011;57313;47.040;15.498;2022-07-29T03:20:24;11.63;;;6.85;;
61036;SDS011;57313;47.040;15.498;2022-07-29T03:22:53;15.07;;;7.10;;
61036;SDS011;57313;47.040;15.498;2022-07-29T03:25:20;13.45;;;6.80;;
61036;SDS011;57313;47.040;15.498;2022-07-29T03:27:48;12.90;;;7.18;;
61036;SDS011;57313;47.040;15.498;2022-07-29T03:30:15;13.52;;;7.13;;
61036;SDS011;57313;47.040;15.498;2022-07-29T03:32:49;10.60;;;6.57;;
61036;SDS011;57313;47.040;15.498;2022-07-29T03:35:18;11.95;;;6.88;;
61036;SDS011;57313;47.040;15.498;2022-07-29T03:37:45;10.77;;;6.13;;
61036;SDS011;57313;47.040;15.498;2022-07-29T03:40:13;11.98;;;7.20;;
61036;SDS011;57313;47.040;15.498;2022-07-29T03:42:44;11.55;;;6.35;;
61036;SDS011;57313;47.040;15.498;2022-07-29T03:45:13;12.18;;;7.50;;
61036;SDS011;57313;47.040;15.498;2022-07-29T03:47:45;10.93;;;6.10;;
61036;SDS011;57313;47.040;15.498;2022-07-29T03:50:25;15.93;;;6.80;;
61036;SDS011;57313;47.040;15.498;2022-07-29T03:52:52;16.10;;;7.00;;
61036;SDS011;57313;47.040;15.498;2022-07-29T03:55:20;11.45;;;6.97;;
61036;SDS011;57313;47.040;15.498;2022-07-29T03:57:49;17.00;;;7.10;;
61036;SDS011;57313;47.040;15.498;2022-07-29T04:00:17;12.23;;;7.00;;
61036;SDS011;57313;47.040;15.498;2022-07-29T04:02:44;14.57;;;6.80;;
61036;SDS011;57313;47.040;15.498;2022-07-29T04:05:13;13.23;;;6.78;;
61036;SDS011;57313;47.040;15.498;2022-07-29T04:07:43;12.23;;;6.90;;
61036;SDS011;57313;47.040;15.498;2022-07-29T04:10:10;12.40;;;6.53;;
61036;SDS011;57313;47.040;15.498;2022-07-29T04:12:38;12.55;;;6.60;;
61036;SDS011;57313;47.040;15.498;2022-07-29T04:15:06;13.35;;;6.93;;
61036;SDS011;57313;47.040;15.498;2022-07-29T04:17:34;15.43;;;6.63;;
61036;SDS011;57313;47.040;15.498;2022-07-29T04:20:01;12.77;;;6.80;;
61036;SDS011;57313;47.040;15.498;2022-07-29T04:22:30;12.02;;;6.25;;
61036;SDS011;57313;47.040;15.498;2022-07-29T04:24:57;10.68;;;6.15;;
61036;SDS011;57313;47.040;15.498;2022-07-29T04:27:29;12.85;;;7.10;;
61036;SDS011;57313;47.040;15.498;2022-07-29T04:29:56;16.30;;;7.10;;
61036;SDS011;57313;47.040;15.498;2022-07-29T04:32:24;11.57;;;6.72;;
61036;SDS011;57313;47.040;15.498;2022-07-29T04:34:52;12.73;;;7.03;;
61036;SDS011;57313;47.040;15.498;2022-07-29T04:37:19;12.10;;;6.63;;
61036;SDS011;57313;47.040;15.498;2022-07-29T04:39:48;14.48;;;6.82;;
61036;SDS011;57313;47.040;15.498;2022-07-29T04:42:15;12.60;;;7.05;;
61036;SDS011;57313;47.040;15.498;2022-07-29T04:44:42;14.15;;;7.32;;
61036;SDS011;57313;47.040;15.498;2022-07-29T04:47:10;13.65;;;7.78;;
61036;SDS011;57313;47.040;15.498;2022-07-29T04:49:38;14.70;;;7.47;;
61036;SDS011;57313;47.040;15.498;2022-07-29T04:52:06;13.48;;;7.53;;
61036;SDS011;57313;47.040;15.498;2022-07-29T04:54:33;13.88;;;8.02;;
61036;SDS011;57313;47.040;15.498;2022-07-29T04:57:02;14.10;;;7.10;;
61036;SDS011;57313;47.040;15.498;2022-07-29T04:59:29;14.95;;;7.45;;
61036;SDS011;57313;47.040;15.498;2022-07-29T05:01:56;12.23;;;7.05;;
61036;SDS011;57313;47.040;15.498;2022-07-29T05:04:23;14.27;;;7.97;;
61036;SDS011;57313;47.040;15.498;2022-07-29T05:06:50;12.55;;;7.03;;
61036;SDS011;57313;47.040;15.498;2022-07-29T05:09:18;13.88;;;8.00;;
61036;SDS011;57313;47.040;15.498;2022-07-29T05:11:45;14.85;;;7.38;;
61036;SDS011;57313;47.040;15.498;2022-07-29T05:14:15;13.25;;;7.75;;
61036;SDS011;57313;47.040;15.498;2022-07-29T05:16:43;11.98;;;6.68;;
61036;SDS011;57313;47.040;15.498;2022-07-29T05:19:10;13.82;;;7.50;;
61036;SDS011;57313;47.040;15.498;2022-07-29T05:21:40;14.90;;;8.07;;
61036;SDS011;57313;47.040;15.498;2022-07-29T05:24:08;20.17;;;7.90;;
61036;SDS011;57313;47.040;15.498;2022-07-29T05:26:36;16.20;;;7.35;;
61036;SDS011;57313;47.040;15.498;2022-07-29T05:29:03;14.00;;;7.50;;
61036;SDS011;57313;47.040;15.498;2022-07-29T05:31:34;14.32;;;7.53;;
61036;SDS011;57313;47.040;15.498;2022-07-29T05:34:01;15.88;;;7.70;;
61036;SDS011;57313;47.040;15.498;2022-07-29T05:36:29;15.48;;;7.95;;
61036;SDS011;57313;47.040;15.498;2022-07-29T05:38:56;15.38;;;7.40;;
61036;SDS011;57313;47.040;15.498;2022-07-29T05:41:24;26.10;;;8.35;;
61036;SDS011;57313;47.040;15.498;2022-07-29T05:43:51;16.23;;;7.15;;
61036;SDS011;57313;47.040;15.498;2022-07-29T05:46:19;17.00;;;7.90;;
61036;SDS011;57313;47.040;15.498;2022-07-29T05:48:52;13.80;;;7.50;;
61036;SDS011;57313;47.040;15.498;2022-07-29T05:51:21;13.38;;;7.90;;
61036;SDS011;57313;47.040;15.498;2022-07-29T05:53:49;13.02;;;7.78;;
61036;SDS011;57313;47.040;15.498;2022-07-29T05:56:17;13.45;;;8.45;;
61036;SDS011;57313;47.040;15.498;2022-07-29T05:58:45;18.92;;;7.78;;
61036;SDS011;57313;47.040;15.498;2022-07-29T06:01:13;14.50;;;7.57;;
61036;SDS011;57313;47.040;15.498;2022-07-29T06:03:40;14.63;;;7.57;;
61036;SDS011;57313;47.040;15.498;2022-07-29T06:06:10;13.57;;;8.23;;
61036;SDS011;57313;47.040;15.498;2022-07-29T06:08:37;14.05;;;7.15;;
61036;SDS011;57313;47.040;15.498;2022-07-29T06:11:05;11.38;;;6.68;;
61036;SDS011;57313;47.040;15.498;2022-07-29T06:13:32;13.93;;;7.10;;
61036;SDS011;57313;47.040;15.498;2022-07-29T06:15:59;13.02;;;7.35;;
61036;SDS011;57313;47.040;15.498;2022-07-29T06:18:26;13.30;;;7.22;;
61036;SDS011;57313;47.040;15.498;2022-07-29T06:20:54;13.80;;;7.80;;
61036;SDS011;57313;47.040;15.498;2022-07-29T06:23:23;14.50;;;7.55;;
61036;SDS011;57313;47.040;15.498;2022-07-29T06:25:51;14.45;;;6.88;;
61036;SDS011;57313;47.040;15.498;2022-07-29T06:28:18;12.60;;;6.97;;
61036;SDS011;57313;47.040;15.498;2022-07-29T06:30:45;12.73;;;7.50;;
61036;SDS011;57313;47.040;15.498;2022-07-29T06:33:15;13.65;;;7.00;;
61036;SDS011;57313;47.040;15.498;2022-07-29T06:35:43;11.98;;;6.75;;
61036;SDS011;57313;47.040;15.498;2022-07-29T06:38:18;12.43;;;6.70;;
61036;SDS011;57313;47.040;15.498;2022-07-29T06:41:01;14.80;;;7.22;;
61036;SDS011;57313;47.040;15.498;2022-07-29T06:43:29;13.57;;;7.35;;
61036;SDS011;57313;47.040;15.498;2022-07-29T06:45:58;14.10;;;7.38;;
61036;SDS011;57313;47.040;15.498;2022-07-29T06:48:26;13.45;;;7.22;;
61036;SDS011;57313;47.040;15.498;2022-07-29T06:50:54;13.48;;;6.90;;
61036;SDS011;57313;47.040;15.498;2022-07-29T06:53:22;12.45;;;6.63;;
61036;SDS011;57313;47.040;15.498;2022-07-29T06:55:49;14.98;;;6.70;;
61036;SDS011;57313;47.040;15.498;2022-07-29T06:58:18;13.70;;;6.40;;
61036;SDS011;57313;47.040;15.498;2022-07-29T07:00:45;13.02;;;6.60;;
61036;SDS011;57313;47.040;15.498;2022-07-29T07:03:13;12.98;;;6.68;;
61036;SDS011;57313;47.040;15.498;2022-07-29T07:05:40;13.77;;;7.07;;
61036;SDS011;57313;47.040;15.498;2022-07-29T07:08:08;12.07;;;6.90;;
61036;SDS011;57313;47.040;15.498;2022-07-29T07:10:35;13.13;;;6.70;;
61036;SDS011;57313;47.040;15.498;2022-07-29T07:13:03;13.13;;;6.82;;
61036;SDS011;57313;47.040;15.498;2022-07-29T07:15:33;12.70;;;6.72;;
61036;SDS011;57313;47.040;15.498;2022-07-29T07:18:05;12.98;;;6.43;;
61036;SDS011;57313;47.040;15.498;2022-07-29T07:20:33;16.90;;;7.40;;
61036;SDS011;57313;47.040;15.498;2022-07-29T07:23:01;10.38;;;6.10;;
61036;SDS011;57313;47.040;15.498;2022-07-29T07:25:28;10.82;;;6.25;;
61036;SDS011;57313;47.040;15.498;2022-07-29T07:27:55;10.77;;;6.28;;
61036;SDS011;57313;47.040;15.498;2022-07-29T07:30:23;12.13;;;6.50;;
61036;SDS011;57313;47.040;15.498;2022-07-29T07:32:52;12.10;;;6.30;;
61036;SDS011;57313;47.040;15.498;2022-07-29T07:35:19;10.95;;;6.47;;
61036;SDS011;57313;47.040;15.498;2022-07-29T07:37:47;12.52;;;7.15;;
61036;SDS011;57313;47.040;15.498;2022-07-29T07:40:14;12.60;;;6.13;;
61036;SDS011;57313;47.040;15.498;2022-07-29T07:42:44;10.95;;;5.93;;
61036;SDS011;57313;47.040;15.498;2022-07-29T07:45:12;12.68;;;6.78;;
61036;SDS011;57313;47.040;15.498;2022-07-29T07:47:42;13.55;;;6.65;;
61036;SDS011;57313;47.040;15.498;2022-07-29T07:50:12;12.60;;;6.47;;
61036;SDS011;57313;47.040;15.498;2022-07-29T07:52:48;12.05;;;6.00;;
61036;SDS011;57313;47.040;15.498;2022-07-29T07:55:16;10.45;;;5.68;;
61036;SDS011;57313;47.040;15.498;2022-07-29T07:57:44;10.90;;;6.03;;
61036;SDS011;57313;47.040;15.498;2022-07-29T08:00:12;14.13;;;5.90;;
61036;SDS011;57313;47.040;15.498;2022-07-29T08:02:40;11.20;;;6.18;;
61036;SDS011;57313;47.040;15.498;2022-07-29T08:05:08;10.00;;;5.55;;
61036;SDS011;57313;47.040;15.498;2022-07-29T08:07:39;13.25;;;6.00;;
61036;SDS011;57313;47.040;15.498;2022-07-29T08:10:07;14.05;;;6.05;;
61036;SDS011;57313;47.040;15.498;2022-07-29T08:12:34;12.55;;;6.07;;
61036;SDS011;57313;47.040;15.498;2022-07-29T08:15:01;11.50;;;5.88;;
61036;SDS011;57313;47.040;15.498;2022-07-29T08:17:31;13.00;;;5.85;;
61036;SDS011;57313;47.040;15.498;2022-07-29T08:20:00;15.93;;;5.75;;
61036;SDS011;57313;47.040;15.498;2022-07-29T08:22:28;9.43;;;5.20;;
61036;SDS011;57313;47.040;15.498;2022-07-29T08:24:57;9.82;;;5.10;;
61036;SDS011;57313;47.040;15.498;2022-07-29T08:27:24;9.85;;;4.90;;
61036;SDS011;57313;47.040;15.498;2022-07-29T08:30:09;9.73;;;5.03;;
61036;SDS011;57313;47.040;15.498;2022-07-29T08:32:37;12.43;;;4.88;;
61036;SDS011;57313;47.040;15.498;2022-07-29T08:35:21;10.70;;;4.38;;
61036;SDS011;57313;47.040;15.498;2022-07-29T08:37:50;11.85;;;4.90;;
61036;SDS011;57313;47.040;15.498;2022-07-29T08:40:20;10.57;;;4.90;;
61036;SDS011;57313;47.040;15.498;2022-07-29T08:42:57;11.57;;;4.75;;
61036;SDS011;57313;47.040;15.498;2022-07-29T08:45:25;9.32;;;4.50;;
61036;SDS011;57313;47.040;15.498;2022-07-29T08:47:55;8.48;;;4.15;;
61036;SDS011;57313;47.040;15.498;2022-07-29T08:50:22;10.77;;;4.68;;
61036;SDS011;57313;47.040;15.498;2022-07-29T08:52:49;9.18;;;4.50;;
61036;SDS011;57313;47.040;15.498;2022-07-29T08:57:53;8.55;;;4.35;;
61036;SDS011;57313;47.040;15.498;2022-07-29T09:00:22;8.45;;;4.10;;
61036;SDS011;57313;47.040;15.498;2022-07-29T09:02:55;11.63;;;3.95;;
61036;SDS011;57313;47.040;15.498;2022-07-29T09:05:23;9.93;;;4.75;;
61036;SDS011;57313;47.040;15.498;2022-07-29T09:07:52;8.93;;;4.00;;
61036;SDS011;57313;47.040;15.498;2022-07-29T09:10:19;10.23;;;4.22;;
61036;SDS011;57313;47.040;15.498;2022-07-29T09:12:48;10.20;;;4.47;;
61036;SDS011;57313;47.040;15.498;2022-07-29T09:15:15;12.85;;;4.35;;
61036;SDS011;57313;47.040;15.498;2022-07-29T09:17:45;9.60;;;4.00;;
61036;SDS011;57313;47.040;15.498;2022-07-29T09:20:14;12.43;;;4.22;;
61036;SDS011;57313;47.040;15.498;2022-07-29T09:22:42;10.10;;;4.53;;
61036;SDS011;57313;47.040;15.498;2022-07-29T09:25:12;12.35;;;4.25;;
61036;SDS011;57313;47.040;15.498;2022-07-29T09:27:39;11.07;;;4.28;;
61036;SDS011;57313;47.040;15.498;2022-07-29T09:30:09;11.30;;;4.60;;
61036;SDS011;57313;47.040;15.498;2022-07-29T09:32:54;9.33;;;4.87;;
61036;SDS011;57313;47.040;15.498;2022-07-29T09:35:22;8.90;;;4.78;;
61036;SDS011;57313;47.040;15.498;2022-07-29T09:37:51;11.10;;;4.85;;
61036;SDS011;57313;47.040;15.498;2022-07-29T09:40:19;13.02;;;5.30;;
61036;SDS011;57313;47.040;15.498;2022-07-29T09:42:48;9.35;;;5.15;;
61036;SDS011;57313;47.040;15.498;2022-07-29T09:45:27;16.58;;;5.63;;
61036;SDS011;57313;47.040;15.498;2022-07-29T09:47:55;12.13;;;5.45;;
61036;SDS011;57313;47.040;15.498;2022-07-29T09:50:34;11.13;;;5.22;;
61036;SDS011;57313;47.040;15.498;2022-07-29T09:53:01;11.45;;;6.30;;
61036;SDS011;57313;47.040;15.498;2022-07-29T09:55:29;13.40;;;5.53;;
61036;SDS011;57313;47.040;15.498;2022-07-29T10:00:44;11.98;;;5.65;;
61036;SDS011;57313;47.040;15.498;2022-07-29T10:03:12;11.50;;;5.35;;
61036;SDS011;57313;47.040;15.498;2022-07-29T10:05:39;11.27;;;5.32;;
61036;SDS011;57313;47.040;15.498;2022-07-29T10:08:07;11.15;;;5.05;;
61036;SDS011;57313;47.040;15.498;2022-07-29T10:10:35;9.40;;;5.05;;
61036;SDS011;57313;47.040;15.498;2022-07-29T10:13:04;9.70;;;5.30;;
61036;SDS011;57313;47.040;15.498;2022-07-29T10:15:41;12.35;;;4.63;;
61036;SDS011;57313;47.040;15.498;2022-07-29T10:18:10;11.27;;;5.13;;
61036;SDS011;57313;47.040;15.498;2022-07-29T10:20:39;11.82;;;4.95;;
61036;SDS011;57313;47.040;15.498;2022-07-29T10:23:06;12.02;;;5.10;;
61036;SDS011;57313;47.040;15.498;2022-07-29T10:25:35;10.73;;;4.55;;
61036;SDS011;57313;47.040;15.498;2022-07-29T10:28:02;11.27;;;4.80;;
61036;SDS011;57313;47.040;15.498;2022-07-29T10:30:29;10.18;;;5.13;;
61036;SDS011;57313;47.040;15.498;2022-07-29T10:33:01;9.55;;;4.60;;
61036;SDS011;57313;47.040;15.498;2022-07-29T10:35:47;10.25;;;4.80;;
61036;SDS011;57313;47.040;15.498;2022-07-29T10:41:26;12.57;;;5.20;;
61036;SDS011;57313;47.040;15.498;2022-07-29T10:44:13;10.73;;;5.47;;
61036;SDS011;57313;47.040;15.498;2022-07-29T10:46:45;10.63;;;5.15;;
61036;SDS011;57313;47.040;15.498;2022-07-29T10:49:13;11.07;;;4.68;;
61036;SDS011;57313;47.040;15.498;2022-07-29T10:54:40;9.80;;;4.53;;
61036;SDS011;57313;47.040;15.498;2022-07-29T10:57:12;12.10;;;4.93;;
61036;SDS011;57313;47.040;15.498;2022-07-29T10:59:41;10.95;;;4.75;;
61036;SDS011;57313;47.040;15.498;2022-07-29T11:05:11;11.77;;;4.97;;
61036;SDS011;57313;47.040;15.498;2022-07-29T11:11:29;10.55;;;4.68;;
61036;SDS011;57313;47.040;15.498;2022-07-29T11:14:03;9.32;;;4.60;;
61036;SDS011;57313;47.040;15.498;2022-07-29T11:19:25;9.63;;;4.53;;
61036;SDS011;57313;47.040;15.498;2022-07-29T11:21:56;15.93;;;4.50;;
61036;SDS011;57313;47.040;15.498;2022-07-29T11:24:25;16.70;;;4.65;;
61036;SDS011;57313;47.040;15.498;2022-07-29T11:27:05;10.82;;;4.70;;
61036;SDS011;57313;47.040;15.498;2022-07-29T11:29:40;12.32;;;4.85;;
61036;SDS011;57313;47.040;15.498;2022-07-29T11:32:15;8.48;;;4.25;;
61036;SDS011;57313;47.040;15.498;2022-07-29T11:34:49;8.90;;;4.40;;
61036;SDS011;57313;47.040;15.498;2022-07-29T11:37:44;12.15;;;4.38;;
61036;SDS011;57313;47.040;15.498;2022-07-29T11:40:22;8.85;;;3.97;;
61036;SDS011;57313;47.040;15.498;2022-07-29T11:42:50;8.63;;;4.40;;
61036;SDS011;57313;47.040;15.498;2022-07-29T11:45:19;12.70;;;4.60;;
61036;SDS011;57313;47.040;15.498;2022-07-29T11:48:07;9.55;;;4.60;;
61036;SDS011;57313;47.040;15.498;2022-07-29T11:50:57;11.68;;;4.60;;
61036;SDS011;57313;47.040;15.498;2022-07-29T11:53:25;10.48;;;4.80;;
61036;SDS011;57313;47.040;15.498;2022-07-29T11:55:56;9.50;;;4.10;;
61036;SDS011;57313;47.040;15.498;2022-07-29T11:58:25;9.55;;;4.18;;
61036;SDS011;57313;47.040;15.498;2022-07-29T12:00:54;9.15;;;4.53;;
61036;SDS011;57313;47.040;15.498;2022-07-29T12:03:23;9.55;;;4.40;;
61036;SDS011;57313;47.040;15.498;2022-07-29T12:06:01;10.85;;;4.60;;
61036;SDS011;57313;47.040;15.498;2022-07-29T12:08:38;7.60;;;3.90;;
61036;SDS011;57313;47.040;15.498;2022-07-29T12:11:14;11.07;;;4.83;;
61036;SDS011;57313;47.040;15.498;2022-07-29T12:16:10;10.80;;;4.55;;
61036;SDS011;57313;47.040;15.498;2022-07-29T12:18:40;13.10;;;4.78;;
61036;SDS011;57313;47.040;15.498;2022-07-29T12:21:07;11.65;;;4.72;;
61036;SDS011;57313;47.040;15.498;2022-07-29T12:23:34;10.77;;;4.53;;
61036;SDS011;57313;47.040;15.498;2022-07-29T12:26:03;8.95;;;4.30;;
61036;SDS011;57313;47.040;15.498;2022-07-29T12:28:38;8.73;;;4.60;;
61036;SDS011;57313;47.040;15.498;2022-07-29T12:31:11;10.27;;;4.72;;
61036;SDS011;57313;47.040;15.498;2022-07-29T12:34:00;10.63;;;4.55;;
61036;SDS011;57313;47.040;15.498;2022-07-29T12:36:27;11.10;;;4.68;;
61036;SDS011;57313;47.040;15.498;2022-07-29T12:38:54;10.38;;;4.55;;
61036;SDS011;57313;47.040;15.498;2022-07-29T12:41:21;12.63;;;4.40;;
61036;SDS011;57313;47.040;15.498;2022-07-29T12:43:54;10.45;;;4.78;;
61036;SDS011;57313;47.040;15.498;2022-07-29T12:46:21;12.15;;;4.90;;
61036;SDS011;57313;47.040;15.498;2022-07-29T12:48:50;9.30;;;4.50;;
61036;SDS011;57313;47.040;15.498;2022-07-29T12:51:18;8.90;;;4.28;;
61036;SDS011;57313;47.040;15.498;2022-07-29T12:54:02;10.93;;;4.90;;
61036;SDS011;57313;47.040;15.498;2022-07-29T12:56:32;9.90;;;4.50;;
61036;SDS011;57313;47.040;15.498;2022-07-29T12:59:16;9.02;;;4.50;;
61036;SDS011;57313;47.040;15.498;2022-07-29T13:01:45;9.90;;;4.68;;
61036;SDS011;57313;47.040;15.498;2022-07-29T13:04:23;8.57;;;4.13;;
61036;SDS011;57313;47.040;15.498;2022-07-29T13:06:57;9.50;;;4.40;;
61036;SDS011;57313;47.040;15.498;2022-07-29T13:09:35;10.77;;;4.78;;
61036;SDS011;57313;47.040;15.498;2022-07-29T13:12:05;9.40;;;4.60;;
61036;SDS011;57313;47.040;15.498;2022-07-29T13:14:35;8.70;;;4.32;;
61036;SDS011;57313;47.040;15.498;2022-07-29T13:17:05;9.98;;;4.75;;
61036;SDS011;57313;47.040;15.498;2022-07-29T13:19:35;13.52;;;4.90;;
61036;SDS011;57313;47.040;15.498;2022-07-29T13:22:04;10.52;;;4.82;;
61036;SDS011;57313;47.040;15.498;2022-07-29T13:24:31;9.27;;;5.00;;
61036;SDS011;57313;47.040;15.498;2022-07-29T13:26:58;10.20;;;5.13;;
61036;SDS011;57313;47.040;15.498;2022-07-29T13:29:30;9.45;;;4.72;;
61036;SDS011;57313;47.040;15.498;2022-07-29T13:32:00;9.50;;;4.63;;
61036;SDS011;57313;47.040;15.498;2022-07-29T13:34:27;9.15;;;4.85;;
61036;SDS011;57313;47.040;15.498;2022-07-29T13:36:54;10.73;;;4.88;;
61036;SDS011;57313;47.040;15.498;2022-07-29T13:39:22;8.77;;;4.65;;
61036;SDS011;57313;47.040;15.498;2022-07-29T13:41:49;12.10;;;5.53;;
61036;SDS011;57313;47.040;15.498;2022-07-29T13:44:16;9.82;;;5.10;;
61036;SDS011;57313;47.040;15.498;2022-07-29T13:46:43;9.75;;;5.13;;
61036;SDS011;57313;47.040;15.498;2022-07-29T13:49:12;11.05;;;4.90;;
61036;SDS011;57313;47.040;15.498;2022-07-29T13:51:39;8.93;;;4.78;;
61036;SDS011;57313;47.040;15.498;2022-07-29T13:54:06;11.45;;;4.95;;
61036;SDS011;57313;47.040;15.498;2022-07-29T13:56:34;11.05;;;5.45;;
61036;SDS011;57313;47.040;15.498;2022-07-29T13:59:01;15.65;;;5.70;;
61036;SDS011;57313;47.040;15.498;2022-07-29T14:01:28;11.57;;;4.95;;
61036;SDS011;57313;47.040;15.498;2022-07-29T14:03:55;12.32;;;5.35;;
61036;SDS011;57313;47.040;15.498;2022-07-29T14:06:24;10.40;;;4.70;;
61036;SDS011;57313;47.040;15.498;2022-07-29T14:08:51;11.95;;;4.75;;
61036;SDS011;57313;47.040;15.498;2022-07-29T14:11:18;10.73;;;5.10;;
61036;SDS011;57313;47.040;15.498;2022-07-29T14:13:46;9.55;;;4.75;;
61036;SDS011;57313;47.040;15.498;2022-07-29T14:16:14;11.10;;;5.47;;
61036;SDS011;57313;47.040;15.498;2022-07-29T14:18:41;12.88;;;5.40;;
61036;SDS011;57313;47.040;15.498;2022-07-29T14:21:08;9.57;;;4.95;;
61036;SDS011;57313;47.040;15.498;2022-07-29T14:23:37;12.07;;;4.72;;
61036;SDS011;57313;47.040;15.498;2022-07-29T14:26:07;10.80;;;4.85;;
61036;SDS011;57313;47.040;15.498;2022-07-29T14:28:41;10.18;;;4.82;;
61036;SDS011;57313;47.040;15.498;2022-07-29T14:31:08;11.52;;;5.18;;
61036;SDS011;57313;47.040;15.498;2022-07-29T14:33:35;10.30;;;5.20;;
61036;SDS011;57313;47.040;15.498;2022-07-29T14:36:03;13.10;;;5.30;;
61036;SDS011;57313;47.040;15.498;2022-07-29T14:38:31;9.50;;;4.97;;
61036;SDS011;57313;47.040;15.498;2022-07-29T14:41:00;10.73;;;5.10;;
61036;SDS011;57313;47.040;15.498;2022-07-29T14:43:28;10.98;;;5.13;;
61036;SDS011;57313;47.040;15.498;2022-07-29T14:45:56;14.13;;;5.03;;
61036;SDS011;57313;47.040;15.498;2022-07-29T14:48:30;11.30;;;4.93;;
61036;SDS011;57313;47.040;15.498;2022-07-29T14:50:58;15.63;;;5.43;;
61036;SDS011;57313;47.040;15.498;2022-07-29T14:53:30;12.27;;;4.85;;
61036;SDS011;57313;47.040;15.498;2022-07-29T14:55:57;10.88;;;4.75;;
61036;SDS011;57313;47.040;15.498;2022-07-29T14:58:47;9.38;;;4.90;;
61036;SDS011;57313;47.040;15.498;2022-07-29T15:01:17;9.05;;;4.50;;
61036;SDS011;57313;47.040;15.498;2022-07-29T15:03:44;12.32;;;4.80;;